Time;durP1;ratioP1;P1;durP2;ratioP2;P2;SDS_P1;SDS_P2;PMS_P1;PMS_P2;Temp;Humidity;BMP_temperature;BMP_pressure;BME280_temperature;BME280_humidity;BME280_pressure;Samples;Min_cycle;Max_cycle;Signal;HPM_P1;HPM_P2
2021/10/30 00:02:13;;;;;;;8.63;4.18;;;15.00;83.20;;;;;;5052190;28;20021;-83
2021/10/30 00:04:38;;;;;;;6.72;3.97;;;14.90;83.10;;;;;;5052272;28;20086;-83
2021/10/30 00:07:04;;;;;;;8.35;4.15;;;14.90;83.20;;;;;;5052248;28;20025;-82
2021/10/30 00:09:30;;;;;;;9.23;4.10;;;15.00;83.50;;;;;;5051910;28;20397;-83
2021/10/30 00:11:56;;;;;;;8.50;4.38;;;14.90;83.50;;;;;;5052106;28;20083;-83
2021/10/30 00:14:21;;;;;;;8.30;4.07;;;14.90;83.60;;;;;;5052022;28;20021;-82
2021/10/30 00:16:47;;;;;;;10.55;4.55;;;14.90;83.60;;;;;;5053194;28;20025;-82
2021/10/30 00:19:12;;;;;;;10.10;4.90;;;14.90;83.70;;;;;;5051797;28;20025;-83
2021/10/30 00:21:38;;;;;;;7.57;4.20;;;14.80;83.70;;;;;;5052039;28;20017;-81
2021/10/30 00:24:04;;;;;;;8.25;4.00;;;14.80;83.70;;;;;;5051980;28;20029;-82
2021/10/30 00:26:29;;;;;;;8.65;4.20;;;14.80;83.90;;;;;;5053016;28;20028;-82
2021/10/30 00:28:55;;;;;;;8.77;4.40;;;14.80;84.00;;;;;;5051590;28;20028;-82
2021/10/30 00:31:21;;;;;;;9.27;4.35;;;14.80;83.90;;;;;;5051739;28;20494;-82
2021/10/30 00:33:46;;;;;;;8.27;4.32;;;14.80;84.00;;;;;;5051925;28;20036;-82
2021/10/30 00:36:12;;;;;;;7.22;4.30;;;14.80;83.90;;;;;;5051709;28;20025;-82
2021/10/30 00:38:37;;;;;;;7.25;4.45;;;14.80;84.00;;;;;;5052703;28;20106;-82
2021/10/30 00:41:09;;;;;;;8.55;4.97;;;14.80;84.10;;;;;;5051521;28;20040;-82
2021/10/30 00:43:35;;;;;;;7.97;4.30;;;14.80;84.00;;;;;;5051695;28;20021;-83
2021/10/30 00:46:01;;;;;;;7.00;4.38;;;14.80;84.10;;;;;;5052648;28;20032;-83
2021/10/30 00:48:26;;;;;;;7.72;4.60;;;14.80;84.10;;;;;;5051141;28;20021;-83
2021/10/30 00:50:56;;;;;;;8.20;4.47;;;14.80;84.00;;;;;;5052707;28;20021;-83
2021/10/30 00:53:29;;;;;;;8.25;4.32;;;14.80;84.20;;;;;;5050658;28;20437;-83
2021/10/30 00:55:56;;;;;;;7.72;3.90;;;14.80;84.20;;;;;;5051608;28;20036;-82
2021/10/30 00:58:22;;;;;;;6.38;4.35;;;14.80;84.30;;;;;;5051334;28;20108;-81
2021/10/30 01:00:51;;;;;;;8.38;4.10;;;14.80;84.30;;;;;;5051135;28;20171;-82
2021/10/30 01:03:17;;;;;;;7.32;4.13;;;14.80;84.20;;;;;;5052611;28;20021;-83
2021/10/30 01:05:42;;;;;;;6.25;4.07;;;14.80;84.30;;;;;;5051363;28;20036;-82
2021/10/30 01:08:12;;;;;;;7.55;4.35;;;14.80;84.30;;;;;;5051290;28;20028;-82
2021/10/30 01:10:38;;;;;;;7.05;4.28;;;14.80;84.20;;;;;;5051020;28;20036;-82
2021/10/30 01:13:04;;;;;;;7.53;4.45;;;14.80;84.20;;;;;;5051184;28;20119;-83
2021/10/30 01:15:30;;;;;;;6.68;4.32;;;14.80;84.30;;;;;;5051169;28;20031;-82
2021/10/30 01:17:56;;;;;;;7.45;4.70;;;14.80;84.30;;;;;;5051108;28;20479;-83
2021/10/30 01:20:25;;;;;;;8.43;4.15;;;14.80;84.40;;;;;;5051072;28;20036;-83
2021/10/30 01:22:55;;;;;;;7.53;4.05;;;14.80;84.30;;;;;;5051184;28;20029;-83
2021/10/30 01:25:21;;;;;;;7.00;3.97;;;14.80;84.40;;;;;;5051201;28;20132;-82
2021/10/30 01:27:48;;;;;;;6.95;3.90;;;14.80;84.50;;;;;;5051136;28;20043;-82
2021/10/30 01:30:16;;;;;;;7.68;4.20;;;14.80;84.50;;;;;;5050929;28;20036;-82
2021/10/30 01:32:50;;;;;;;6.40;3.88;;;14.80;84.60;;;;;;5052225;28;20052;-82
2021/10/30 01:35:16;;;;;;;8.27;4.20;;;14.80;85.20;;;;;;5052208;28;20029;-83
2021/10/30 01:37:41;;;;;;;6.82;4.13;;;14.80;84.70;;;;;;5050867;28;20035;-82
2021/10/30 01:40:07;;;;;;;7.18;4.10;;;14.80;84.70;;;;;;5050852;28;20025;-83
2021/10/30 01:42:33;;;;;;;7.10;3.95;;;14.80;84.80;;;;;;5050947;28;20021;-82
2021/10/30 01:44:58;;;;;;;7.50;4.35;;;14.80;84.80;;;;;;5051118;28;20099;-82
2021/10/30 01:47:24;;;;;;;6.38;4.00;;;14.80;84.80;;;;;;5050815;28;20025;-82
2021/10/30 01:49:49;;;;;;;6.50;3.65;;;14.80;84.80;;;;;;5051580;28;20046;-82
2021/10/30 01:52:15;;;;;;;7.47;4.00;;;14.80;84.90;;;;;;5050980;28;20059;-83
2021/10/30 01:54:40;;;;;;;6.70;3.67;;;14.80;84.80;;;;;;5052283;28;20371;-82
2021/10/30 01:57:06;;;;;;;7.13;4.00;;;14.80;84.80;;;;;;5047259;28;20065;-83
2021/10/30 01:59:31;;;;;;;6.50;3.58;;;14.80;85.00;;;;;;5031152;28;20116;-83
2021/10/30 02:01:57;;;;;;;8.15;4.30;;;14.80;85.00;;;;;;5031046;28;20057;-83
2021/10/30 02:04:22;;;;;;;6.40;3.83;;;14.80;84.90;;;;;;5033886;28;20399;-82
2021/10/30 02:06:48;;;;;;;9.23;3.90;;;14.80;84.70;;;;;;5035972;28;20033;-82
2021/10/30 02:09:14;;;;;;;8.98;4.55;;;14.80;84.70;;;;;;5034264;28;20025;-83
2021/10/30 02:11:39;;;;;;;7.18;3.90;;;14.80;84.50;;;;;;5035785;28;20052;-83
2021/10/30 02:14:05;;;;;;;7.25;3.80;;;14.80;84.50;;;;;;5035615;28;20033;-82
2021/10/30 02:16:30;;;;;;;6.30;3.90;;;14.80;84.70;;;;;;5034223;28;20041;-82
2021/10/30 02:18:56;;;;;;;6.68;3.88;;;14.80;84.70;;;;;;5034292;28;20108;-83
2021/10/30 02:21:21;;;;;;;6.90;3.67;;;14.80;84.60;;;;;;5034249;28;20025;-81
2021/10/30 02:23:47;;;;;;;10.20;4.15;;;14.80;84.60;;;;;;5034351;28;20491;-83
2021/10/30 02:26:12;;;;;;;8.32;4.30;;;14.90;84.80;;;;;;5034204;28;20068;-83
2021/10/30 02:28:38;;;;;;;6.90;3.80;;;14.90;84.60;;;;;;5033912;28;20108;-82
2021/10/30 02:31:03;;;;;;;7.70;4.35;;;14.90;84.60;;;;;;5035398;28;20108;-83
2021/10/30 02:33:29;;;;;;;6.78;3.80;;;14.90;84.60;;;;;;5034070;28;20491;-82
2021/10/30 02:35:54;;;;;;;8.25;3.95;;;14.90;84.40;;;;;;5035142;28;20017;-82
2021/10/30 02:38:20;;;;;;;11.13;4.70;;;14.90;84.50;;;;;;5033771;28;20426;-81
2021/10/30 02:40:45;;;;;;;13.48;4.15;;;14.90;84.50;;;;;;5033761;28;20053;-83
2021/10/30 02:43:11;;;;;;;8.88;4.07;;;14.90;84.50;;;;;;5033960;28;20382;-82
2021/10/30 02:45:36;;;;;;;9.35;4.20;;;14.90;84.50;;;;;;5033749;28;20486;-83
2021/10/30 02:48:02;;;;;;;6.40;4.00;;;14.90;84.50;;;;;;5034444;28;20026;-81
2021/10/30 02:50:28;;;;;;;7.20;3.95;;;14.80;84.60;;;;;;5053117;28;20100;-83
2021/10/30 02:52:54;;;;;;;8.55;4.20;;;14.80;84.70;;;;;;5053569;28;20098;-83
2021/10/30 02:55:19;;;;;;;8.05;3.75;;;14.80;84.80;;;;;;5054835;28;20482;-83
2021/10/30 02:57:47;;;;;;;17.90;5.47;;;14.80;85.00;;;;;;5053476;28;20024;-82
2021/10/30 03:00:13;;;;;;;21.48;5.68;;;14.80;85.10;;;;;;5054567;28;20024;-82
2021/10/30 03:02:39;;;;;;;12.93;4.68;;;14.80;85.20;;;;;;5053328;28;20024;-83
2021/10/30 03:05:06;;;;;;;14.75;4.53;;;14.70;85.10;;;;;;5053283;28;20036;-83
2021/10/30 03:07:31;;;;;;;8.57;4.10;;;14.70;85.30;;;;;;5053082;28;20079;-82
2021/10/30 03:09:57;;;;;;;12.77;4.57;;;14.70;85.20;;;;;;5054249;28;20103;-82
2021/10/30 03:12:22;;;;;;;8.30;4.45;;;14.70;85.70;;;;;;5054473;28;20033;-82
2021/10/30 03:14:48;;;;;;;9.02;4.43;;;14.70;85.30;;;;;;5052949;28;20039;-82
2021/10/30 03:17:13;;;;;;;7.35;4.40;;;14.80;85.40;;;;;;5069954;22;20068;-77
2021/10/30 03:19:39;;;;;;;11.57;4.32;;;14.70;85.30;;;;;;5063022;28;20027;-74
2021/10/30 03:22:04;;;;;;;9.38;4.30;;;14.70;85.30;;;;;;5071780;28;20082;-74
2021/10/30 03:24:30;;;;;;;9.48;4.57;;;14.70;85.30;;;;;;5053862;28;20277;-74
2021/10/30 03:26:55;;;;;;;7.15;4.10;;;14.70;85.30;;;;;;5052347;28;20029;-73
2021/10/30 03:29:21;;;;;;;11.57;5.00;;;14.70;85.40;;;;;;5052086;28;20033;-74
2021/10/30 03:31:46;;;;;;;8.05;4.40;;;14.70;85.80;;;;;;5038201;28;20380;-74
2021/10/30 03:34:12;;;;;;;8.70;4.20;;;14.70;85.40;;;;;;5041889;28;20029;-74
2021/10/30 03:36:39;;;;;;;8.15;4.82;;;14.70;86.00;;;;;;5053312;28;20036;-74
2021/10/30 03:39:05;;;;;;;7.10;4.63;;;14.70;85.40;;;;;;5052026;28;20037;-75
2021/10/30 03:41:30;;;;;;;7.63;4.18;;;14.80;85.50;;;;;;5053419;28;20130;-74
2021/10/30 03:43:56;;;;;;;8.35;4.65;;;14.70;85.40;;;;;;5052002;28;20044;-74
2021/10/30 03:46:21;;;;;;;8.68;4.72;;;14.70;85.50;;;;;;5052003;28;20028;-73
2021/10/30 03:48:47;;;;;;;10.30;5.00;;;14.70;85.70;;;;;;5052650;28;20028;-74
2021/10/30 03:51:13;;;;;;;8.20;4.85;;;14.70;85.70;;;;;;5052005;28;20028;-74
2021/10/30 03:53:38;;;;;;;7.43;4.35;;;14.70;85.80;;;;;;5051907;28;20021;-74
2021/10/30 03:56:04;;;;;;;10.20;5.05;;;14.70;85.80;;;;;;5053208;28;20504;-74
2021/10/30 03:58:31;;;;;;;8.70;5.05;;;14.80;85.90;;;;;;5052715;28;20032;-73
2021/10/30 04:00:57;;;;;;;8.90;5.07;;;14.70;85.80;;;;;;5052979;28;20048;-74
2021/10/30 04:03:22;;;;;;;8.30;5.28;;;14.70;85.80;;;;;;5052984;28;20021;-74
2021/10/30 04:05:48;;;;;;;9.27;4.80;;;14.70;85.70;;;;;;5052925;28;20459;-74
2021/10/30 04:08:18;;;;;;;8.30;4.78;;;14.70;85.70;;;;;;5051562;28;20028;-74
2021/10/30 04:10:44;;;;;;;9.18;5.00;;;14.70;85.70;;;;;;5052708;28;20025;-74
2021/10/30 04:13:09;;;;;;;7.22;4.68;;;14.70;85.70;;;;;;5051540;28;20036;-74
2021/10/30 04:15:35;;;;;;;8.77;5.50;;;14.70;85.70;;;;;;5051460;28;20087;-74
2021/10/30 04:18:01;;;;;;;9.45;5.40;;;14.70;85.60;;;;;;5051346;28;20036;-74
2021/10/30 04:20:26;;;;;;;7.80;5.20;;;14.70;85.70;;;;;;5051118;28;20398;-74
2021/10/30 04:22:52;;;;;;;8.93;5.32;;;14.70;85.70;;;;;;5051483;28;20052;-74
2021/10/30 04:25:17;;;;;;;8.15;4.82;;;14.70;85.70;;;;;;5052761;28;20032;-74
2021/10/30 04:27:43;;;;;;;7.55;5.20;;;14.70;86.20;;;;;;5050402;28;20145;-74
2021/10/30 04:30:09;;;;;;;7.68;5.10;;;14.70;85.70;;;;;;5050961;28;20029;-74
2021/10/30 04:32:34;;;;;;;8.63;5.47;;;14.70;85.80;;;;;;5052488;28;20033;-74
2021/10/30 04:35:06;;;;;;;7.72;5.22;;;14.70;85.80;;;;;;5051100;28;20079;-74
2021/10/30 04:37:32;;;;;;;8.85;5.93;;;14.70;85.80;;;;;;5052325;28;20017;-74
2021/10/30 04:39:57;;;;;;;8.88;5.43;;;14.70;85.70;;;;;;5052045;28;20025;-74
2021/10/30 04:42:23;;;;;;;7.95;5.47;;;14.70;85.80;;;;;;5052253;28;20392;-74
2021/10/30 04:44:49;;;;;;;8.10;5.60;;;14.70;85.80;;;;;;5051079;28;20509;-74
2021/10/30 04:47:18;;;;;;;9.18;5.97;;;14.70;85.80;;;;;;5050895;28;20017;-74
2021/10/30 04:49:48;;;;;;;7.53;5.13;;;14.70;85.10;;;;;;5050157;28;20482;-74
2021/10/30 04:52:14;;;;;;;8.90;5.60;;;14.70;85.40;;;;;;5052234;28;20029;-74
2021/10/30 04:54:40;;;;;;;8.25;5.75;;;14.70;85.30;;;;;;5050900;28;20035;-74
2021/10/30 04:57:05;;;;;;;8.93;5.80;;;14.80;85.70;;;;;;5050918;28;20047;-74
2021/10/30 04:59:32;;;;;;;8.23;5.30;;;14.80;85.60;;;;;;5051836;28;20420;-74
2021/10/30 05:01:57;;;;;;;10.00;5.13;;;14.80;85.60;;;;;;5050850;28;20021;-74
2021/10/30 05:04:24;;;;;;;9.23;6.47;;;14.80;85.60;;;;;;5052087;28;20494;-74
2021/10/30 05:06:49;;;;;;;8.02;5.63;;;14.80;85.50;;;;;;5050677;28;20075;-73
2021/10/30 05:09:15;;;;;;;9.77;6.20;;;14.80;85.90;;;;;;5051631;28;20446;-74
2021/10/30 05:11:40;;;;;;;8.13;5.35;;;14.80;85.40;;;;;;5051979;28;20474;-74
2021/10/30 05:14:06;;;;;;;9.45;6.40;;;14.80;85.40;;;;;;5050664;28;20025;-74
2021/10/30 05:16:32;;;;;;;8.07;5.85;;;14.80;85.40;;;;;;5050629;28;20394;-74
2021/10/30 05:18:57;;;;;;;9.20;6.25;;;14.80;85.30;;;;;;5051688;28;20033;-75
2021/10/30 05:21:23;;;;;;;8.60;6.05;;;14.80;85.30;;;;;;5051921;28;20028;-74
2021/10/30 05:23:48;;;;;;;8.75;6.43;;;14.80;85.30;;;;;;5050677;28;20021;-74
2021/10/30 05:26:13;;;;;;;9.20;6.38;;;14.80;85.30;;;;;;5050710;28;20025;-74
2021/10/30 05:28:39;;;;;;;8.80;6.07;;;14.80;85.20;;;;;;5050267;28;20017;-74
2021/10/30 05:31:05;;;;;;;9.55;6.57;;;14.80;85.30;;;;;;5042235;28;20110;-75
2021/10/30 05:33:31;;;;;;;9.77;6.25;;;14.80;86.00;;;;;;5027768;28;20056;-74
2021/10/30 05:35:56;;;;;;;8.63;6.18;;;14.80;85.60;;;;;;5040258;28;20032;-74
2021/10/30 05:38:22;;;;;;;8.98;6.15;;;14.70;85.60;;;;;;5035480;28;20084;-74
2021/10/30 05:40:48;;;;;;;9.77;7.10;;;14.70;85.70;;;;;;5024272;28;20404;-74
2021/10/30 05:43:14;;;;;;;9.50;6.38;;;14.70;85.80;;;;;;5030223;28;20060;-74
2021/10/30 05:45:42;;;;;;;9.98;6.68;;;14.70;85.80;;;;;;5030153;28;20029;-74
2021/10/30 05:48:09;;;;;;;9.13;6.65;;;14.70;85.80;;;;;;5029594;28;20442;-75
2021/10/30 05:50:34;;;;;;;9.55;7.10;;;14.70;85.90;;;;;;5027764;28;20142;-73
2021/10/30 05:53:00;;;;;;;9.73;6.88;;;14.70;86.00;;;;;;5028887;28;20568;-74
2021/10/30 05:55:26;;;;;;;10.32;6.60;;;14.70;86.00;;;;;;5049068;28;20033;-75
2021/10/30 05:57:52;;;;;;;10.00;6.75;;;14.60;86.00;;;;;;5049604;28;20029;-75
2021/10/30 06:00:18;;;;;;;10.45;6.85;;;14.70;86.00;;;;;;5048309;28;20797;-74
2021/10/30 06:02:43;;;;;;;10.20;7.35;;;14.70;86.00;;;;;;5049100;28;20029;-76
2021/10/30 06:05:09;;;;;;;10.05;7.32;;;14.60;85.90;;;;;;5048568;28;20037;-74
2021/10/30 06:07:34;;;;;;;12.43;6.97;;;14.60;85.90;;;;;;5048697;28;20032;-76
2021/10/30 06:10:00;;;;;;;9.88;7.50;;;14.60;85.80;;;;;;5048302;28;20037;-74
2021/10/30 06:12:26;;;;;;;10.02;7.47;;;14.70;85.90;;;;;;5049813;28;20025;-74
2021/10/30 06:14:52;;;;;;;10.50;7.63;;;14.60;85.70;;;;;;5048363;28;20029;-74
2021/10/30 06:17:18;;;;;;;9.63;7.35;;;14.60;85.60;;;;;;5048920;28;20082;-77
2021/10/30 06:19:44;;;;;;;10.23;7.57;;;14.60;85.60;;;;;;5047440;28;20035;-73
2021/10/30 06:22:10;;;;;;;10.35;7.68;;;14.60;85.60;;;;;;5047726;28;20029;-75
2021/10/30 06:24:35;;;;;;;10.85;7.32;;;14.60;85.60;;;;;;5027422;28;20072;-76
2021/10/30 06:27:01;;;;;;;10.02;7.55;;;14.60;85.50;;;;;;5028501;28;20032;-74
2021/10/30 06:29:28;;;;;;;10.35;7.63;;;14.60;85.50;;;;;;5028357;28;20035;-76
2021/10/30 06:31:54;;;;;;;10.38;7.63;;;14.60;85.50;;;;;;5028260;28;20383;-73
2021/10/30 06:34:20;;;;;;;11.27;7.80;;;14.70;85.40;;;;;;5029486;28;20036;-75
2021/10/30 06:36:46;;;;;;;11.43;8.10;;;14.60;85.40;;;;;;5028641;28;20571;-74
2021/10/30 06:39:11;;;;;;;11.10;7.55;;;14.60;85.30;;;;;;5028623;28;20045;-73
2021/10/30 06:41:37;;;;;;;11.20;8.27;;;14.60;85.00;;;;;;5028786;28;20076;-74
2021/10/30 06:44:03;;;;;;;11.98;8.20;;;14.60;85.30;;;;;;5028345;28;20558;-75
2021/10/30 06:46:29;;;;;;;10.82;7.70;;;14.60;85.30;;;;;;5027658;28;20033;-74
2021/10/30 06:48:56;;;;;;;10.90;7.90;;;14.70;85.40;;;;;;5028686;28;20029;-74
2021/10/30 06:51:23;;;;;;;11.63;8.00;;;14.60;85.30;;;;;;5027618;28;20108;-75
2021/10/30 06:53:49;;;;;;;12.73;8.13;;;14.60;85.30;;;;;;5027806;28;20025;-73
2021/10/30 06:56:16;;;;;;;13.32;8.65;;;14.60;85.40;;;;;;5027746;28;20609;-74
2021/10/30 06:58:41;;;;;;;12.32;8.82;;;14.60;85.90;;;;;;5027221;28;20049;-75
2021/10/30 07:01:07;;;;;;;12.20;8.35;;;14.60;85.30;;;;;;5029015;28;20467;-74
2021/10/30 07:03:33;;;;;;;11.95;8.45;;;14.60;85.20;;;;;;5029502;28;20028;-74
2021/10/30 07:09:20;;;;;;;13.20;8.80;;;14.60;81.80;;;;;;5042791;28;20578;-73
2021/10/30 07:11:46;;;;;;;13.23;8.48;;;14.60;82.00;;;;;;5044832;28;20037;-75
2021/10/30 07:14:13;;;;;;;11.65;8.25;;;14.60;82.30;;;;;;5049189;28;20083;-75
2021/10/30 07:16:38;;;;;;;12.00;8.65;;;14.60;82.60;;;;;;5048276;28;20047;-76
2021/10/30 07:19:04;;;;;;;13.23;8.32;;;14.60;82.90;;;;;;5047713;28;20116;-74
2021/10/30 07:21:29;;;;;;;12.40;7.88;;;14.60;83.20;;;;;;5047795;28;20029;-75
2021/10/30 07:23:55;;;;;;;12.65;8.40;;;14.60;83.40;;;;;;5047745;28;20385;-76
2021/10/30 07:26:21;;;;;;;11.07;8.32;;;14.60;83.60;;;;;;5047202;28;20021;-74
2021/10/30 07:28:46;;;;;;;12.10;8.13;;;14.60;83.80;;;;;;5046935;28;20115;-75
2021/10/30 07:31:12;;;;;;;10.90;7.60;;;14.60;83.30;;;;;;5050819;28;20029;-73
2021/10/30 07:33:37;;;;;;;12.65;8.25;;;14.60;83.60;;;;;;5046950;28;20025;-76
2021/10/30 07:36:03;;;;;;;13.15;8.38;;;14.70;83.90;;;;;;5047604;28;20060;-75
2021/10/30 07:38:29;;;;;;;11.65;8.35;;;14.70;84.00;;;;;;5047802;28;20079;-75
2021/10/30 07:40:55;;;;;;;11.15;7.72;;;14.70;84.10;;;;;;5047458;28;20017;-74
2021/10/30 07:43:20;;;;;;;10.63;7.95;;;14.70;84.20;;;;;;5048254;28;20481;-74
2021/10/30 07:45:46;;;;;;;11.65;7.63;;;14.70;84.20;;;;;;5047889;28;20037;-75
2021/10/30 07:48:11;;;;;;;11.18;7.88;;;14.70;84.20;;;;;;5047515;28;20032;-74
2021/10/30 07:50:37;;;;;;;11.60;7.65;;;14.70;84.20;;;;;;5046711;28;20060;-74
2021/10/30 07:53:03;;;;;;;11.38;7.95;;;14.80;84.20;;;;;;5016820;28;20535;-74
2021/10/30 07:55:29;;;;;;;11.38;7.45;;;14.80;84.40;;;;;;5011960;28;20025;-74
2021/10/30 07:57:55;;;;;;;10.25;7.55;;;14.70;84.20;;;;;;5008419;28;20105;-75
2021/10/30 08:00:20;;;;;;;10.35;7.35;;;14.80;84.40;;;;;;5008187;28;20033;-76
2021/10/30 08:02:46;;;;;;;9.88;7.30;;;14.70;84.50;;;;;;5038006;28;20064;-74
2021/10/30 08:05:13;;;;;;;10.40;7.13;;;14.80;84.40;;;;;;5039037;28;20449;-74
2021/10/30 08:07:39;;;;;;;10.15;7.00;;;14.80;84.40;;;;;;5007234;28;20030;-74
2021/10/30 08:10:06;;;;;;;10.35;7.75;;;14.80;84.70;;;;;;5006716;28;20033;-74
2021/10/30 08:12:35;;;;;;;10.57;7.28;;;14.70;84.70;;;;;;5006853;28;20022;-75
2021/10/30 08:15:03;;;;;;;11.07;7.20;;;14.80;85.40;;;;;;5007992;28;20052;-74
2021/10/30 08:17:28;;;;;;;10.95;7.47;;;14.70;85.00;;;;;;5006263;28;20022;-74
2021/10/30 08:19:54;;;;;;;10.23;7.05;;;14.70;85.10;;;;;;5008014;28;20429;-75
2021/10/30 08:22:20;;;;;;;10.88;7.25;;;14.60;85.20;;;;;;5006254;28;20084;-74
2021/10/30 08:24:46;;;;;;;10.60;7.03;;;14.70;85.40;;;;;;5005645;28;20018;-75
2021/10/30 08:27:13;;;;;;;9.40;7.00;;;14.60;85.50;;;;;;5005216;28;20041;-75
2021/10/30 08:29:39;;;;;;;10.40;7.13;;;14.60;85.50;;;;;;5005176;28;20032;-74
2021/10/30 08:32:06;;;;;;;10.77;7.45;;;14.60;85.40;;;;;;5006848;28;20033;-74
2021/10/30 08:34:32;;;;;;;10.52;7.10;;;14.60;85.70;;;;;;5005773;28;20159;-75
2021/10/30 08:36:57;;;;;;;10.73;7.10;;;14.60;85.80;;;;;;5006601;28;20097;-74
2021/10/30 08:39:23;;;;;;;11.55;7.20;;;14.60;85.80;;;;;;5005730;28;20478;-74
2021/10/30 08:41:49;;;;;;;9.45;6.70;;;14.70;85.80;;;;;;5005489;28;20029;-73
2021/10/30 08:44:15;;;;;;;10.10;7.00;;;14.60;85.80;;;;;;5005909;28;20380;-75
2021/10/30 08:46:40;;;;;;;10.10;7.20;;;14.60;85.90;;;;;;5007326;28;20049;-75
2021/10/30 08:49:10;;;;;;;9.52;7.20;;;14.60;85.90;;;;;;5008569;28;20352;-77
2021/10/30 08:51:35;;;;;;;10.43;7.47;;;14.60;86.00;;;;;;5017820;28;20042;-75
2021/10/30 08:54:01;;;;;;;10.65;7.13;;;14.60;86.00;;;;;;5007386;28;20033;-75
2021/10/30 08:56:27;;;;;;;9.82;7.00;;;14.60;86.10;;;;;;5006275;28;20030;-75
2021/10/30 08:58:53;;;;;;;9.15;6.30;;;14.60;86.00;;;;;;5008396;28;20093;-76
2021/10/30 09:01:18;;;;;;;9.70;6.90;;;14.60;86.10;;;;;;5007808;28;20025;-76
2021/10/30 09:03:58;;;;;;;10.63;7.10;;;14.60;86.10;;;;;;5022881;28;20785;-76
2021/10/30 09:06:39;;;;;;;9.02;6.45;;;14.60;86.10;;;;;;5006743;28;20026;-76
2021/10/30 09:09:18;;;;;;;10.02;6.32;;;14.60;86.20;;;;;;5023382;28;20403;-76
2021/10/30 09:11:53;;;;;;;9.52;6.88;;;14.60;86.20;;;;;;5022791;28;20026;-75
2021/10/30 09:14:24;;;;;;;10.15;7.22;;;14.60;86.20;;;;;;5010239;28;20022;-76
2021/10/30 09:17:14;;;;;;;10.23;6.40;;;14.60;86.20;;;;;;5012266;28;20026;-77
2021/10/30 09:19:42;;;;;;;11.18;6.60;;;14.60;86.10;;;;;;5011187;28;20022;-77
2021/10/30 09:22:08;;;;;;;10.25;6.90;;;14.70;86.10;;;;;;5012079;28;20507;-76
2021/10/30 09:25:01;;;;;;;11.27;7.15;;;14.70;85.70;;;;;;5013408;28;20032;-75
2021/10/30 09:27:48;;;;;;;14.13;7.45;;;14.60;85.20;;;;;;5013459;28;20065;-78
2021/10/30 09:30:17;;;;;;;12.57;7.03;;;14.60;84.90;;;;;;5011768;28;20032;-77
2021/10/30 09:32:53;;;;;;;12.15;7.32;;;14.60;84.90;;;;;;5027973;28;20030;-77
2021/10/30 09:35:43;;;;;;;12.07;7.50;;;14.60;85.00;;;;;;5027609;28;20117;-77
2021/10/30 09:38:29;;;;;;;12.30;6.85;;;14.60;85.20;;;;;;5004918;28;20033;-76
2021/10/30 09:40:55;;;;;;;10.15;6.85;;;14.60;85.40;;;;;;5030157;28;20064;-77
2021/10/30 09:43:22;;;;;;;13.55;6.95;;;14.60;85.60;;;;;;5036631;28;20051;-77
2021/10/30 09:45:53;;;;;;;12.45;7.38;;;14.60;85.60;;;;;;5051529;28;20029;-78
2021/10/30 09:48:27;;;;;;;11.48;7.15;;;14.60;85.70;;;;;;5052296;28;20074;-76
2021/10/30 09:50:58;;;;;;;13.48;7.63;;;14.60;85.80;;;;;;5050599;28;20033;-77
2021/10/30 09:53:34;;;;;;;11.82;7.25;;;14.60;85.90;;;;;;5051555;28;20029;-77
2021/10/30 09:56:01;;;;;;;9.55;6.93;;;14.60;85.90;;;;;;5053086;28;20401;-77
2021/10/30 09:58:33;;;;;;;9.82;6.63;;;14.60;86.00;;;;;;5050961;28;20021;-78
2021/10/30 10:01:12;;;;;;;10.00;6.70;;;14.60;86.10;;;;;;5051460;28;20493;-76
2021/10/30 10:03:46;;;;;;;10.55;7.13;;;14.60;86.10;;;;;;5051708;28;20083;-77
2021/10/30 10:06:17;;;;;;;10.90;6.78;;;14.60;86.20;;;;;;5049912;28;20024;-77
2021/10/30 10:08:43;;;;;;;10.30;7.20;;;14.60;86.30;;;;;;5050258;28;20033;-78
2021/10/30 10:11:13;;;;;;;11.15;6.78;;;14.60;86.30;;;;;;5049825;28;20457;-76
2021/10/30 10:13:40;;;;;;;10.90;6.85;;;14.60;86.30;;;;;;5050177;28;20032;-76
2021/10/30 10:16:19;;;;;;;10.98;6.93;;;14.60;86.30;;;;;;5028120;28;20108;-75
2021/10/30 10:18:50;;;;;;;11.77;6.82;;;14.60;86.30;;;;;;5030530;28;20498;-77
2021/10/30 10:21:26;;;;;;;8.98;6.53;;;14.60;86.30;;;;;;5029783;28;20560;-76
2021/10/30 10:23:52;;;;;;;8.68;6.47;;;14.60;86.20;;;;;;5031093;28;20044;-75
2021/10/30 10:26:17;;;;;;;10.18;7.40;;;14.70;86.10;;;;;;5029719;28;20098;-76
2021/10/30 10:28:43;;;;;;;10.70;6.85;;;14.70;86.20;;;;;;5029894;28;20487;-77
2021/10/30 10:31:23;;;;;;;10.00;6.47;;;14.70;86.20;;;;;;5030512;28;20179;-77
2021/10/30 10:34:08;;;;;;;9.30;6.22;;;14.70;86.10;;;;;;5030741;28;20474;-77
2021/10/30 10:36:34;;;;;;;10.02;6.38;;;14.80;86.00;;;;;;5030562;28;20076;-82
2021/10/30 10:39:00;;;;;;;9.90;6.38;;;14.80;86.00;;;;;;5017915;28;20026;-78
2021/10/30 10:41:38;;;;;;;9.60;6.38;;;14.70;85.90;;;;;;5021289;28;20017;-77
2021/10/30 10:44:26;;;;;;;10.38;6.85;;;14.70;85.80;;;;;;5015365;28;20028;-77
2021/10/30 10:46:57;;;;;;;9.95;6.70;;;14.80;85.80;;;;;;5010567;28;20103;-78
2021/10/30 10:52:29;;;;;;;10.48;6.90;;;14.80;85.90;;;;;;5031475;28;20034;-77
2021/10/30 10:54:55;;;;;;;9.70;7.07;;;14.70;85.80;;;;;;5031008;28;20025;-78
2021/10/30 10:57:31;;;;;;;13.52;7.13;;;14.80;85.80;;;;;;5030437;28;20021;-78
2021/10/30 11:00:06;;;;;;;12.88;6.13;;;14.80;85.70;;;;;;5030636;28;20083;-76
2021/10/30 11:02:33;;;;;;;12.90;6.95;;;14.80;84.60;;;;;;5032019;28;20026;-79
2021/10/30 11:05:27;;;;;;;11.13;6.53;;;14.80;85.00;;;;;;5031600;28;20029;-78
2021/10/30 11:07:53;;;;;;;12.38;7.10;;;14.70;84.60;;;;;;5029073;28;20033;-78
2021/10/30 11:10:21;;;;;;;12.55;6.50;;;14.70;84.00;;;;;;5025376;28;20036;-78
2021/10/30 11:13:02;;;;;;;12.85;6.35;;;14.70;83.80;;;;;;5025001;28;20029;-78
2021/10/30 11:15:49;;;;;;;11.30;6.68;;;14.60;83.60;;;;;;5029098;28;20029;-78
2021/10/30 11:18:30;;;;;;;10.93;6.82;;;14.60;83.50;;;;;;5029303;28;20029;-78
2021/10/30 11:21:05;;;;;;;;;;;14.60;83.50;;;;;;5030889;28;20067;-76
2021/10/30 11:23:32;;;;;;;10.43;6.25;;;14.60;83.60;;;;;;5029711;28;20004;-77
2021/10/30 11:26:08;;;;;;;10.65;7.13;;;14.60;83.30;;;;;;5030512;28;20371;-78
2021/10/30 11:28:34;;;;;;;9.35;6.35;;;14.60;83.20;;;;;;5030964;28;20112;-77
2021/10/30 11:31:20;;;;;;;11.63;6.60;;;14.60;83.30;;;;;;5031360;28;20083;-78
2021/10/30 11:33:56;;;;;;;9.88;6.68;;;14.60;83.10;;;;;;5032504;28;20021;-78
2021/10/30 11:36:22;;;;;;;11.00;6.90;;;14.60;82.90;;;;;;5030139;28;20075;-77
2021/10/30 11:38:52;;;;;;;9.95;6.15;;;14.50;83.50;;;;;;5031694;28;20029;-78
2021/10/30 11:41:20;;;;;;;9.93;6.80;;;14.50;83.60;;;;;;5030341;28;20030;-77
2021/10/30 11:43:48;;;;;;;9.48;6.22;;;14.50;85.70;;;;;;5029948;28;20247;-76
2021/10/30 11:46:16;;;;;;;9.55;6.32;;;14.60;83.80;;;;;;5029233;28;20029;-78
2021/10/30 11:48:51;;;;;;;8.77;6.18;;;14.50;84.30;;;;;;5030028;28;20498;-77
2021/10/30 11:51:18;;;;;;;9.60;6.20;;;14.50;85.40;;;;;;5029892;28;20029;-78
2021/10/30 11:53:45;;;;;;;9.68;6.10;;;14.50;83.60;;;;;;5030808;28;20056;-78
2021/10/30 11:56:15;;;;;;;10.13;6.13;;;14.50;84.10;;;;;;5023491;28;20164;-76
2021/10/30 11:58:45;;;;;;;11.80;6.38;;;14.50;83.20;;;;;;5017746;28;20478;-78
2021/10/30 12:01:40;;;;;;;8.35;5.80;;;14.50;83.70;;;;;;5025105;28;20021;-78
2021/10/30 12:04:07;;;;;;;9.05;5.78;;;14.50;82.70;;;;;;5025255;28;20506;-78
2021/10/30 12:06:34;;;;;;;9.63;6.10;;;14.50;83.10;;;;;;5019923;28;20041;-78
2021/10/30 12:09:02;;;;;;;11.13;6.22;;;14.50;84.00;;;;;;5030510;28;20034;-78
2021/10/30 12:11:34;;;;;;;10.05;6.63;;;14.50;84.50;;;;;;5029050;28;20398;-77
2021/10/30 12:14:00;;;;;;;8.15;5.53;;;14.50;83.20;;;;;;5030749;28;20060;-78
2021/10/30 12:16:27;;;;;;;8.80;6.07;;;14.50;82.90;;;;;;5028828;28;20498;-78
2021/10/30 12:19:00;;;;;;;9.32;6.20;;;14.50;84.40;;;;;;5029833;28;20049;-78
2021/10/30 12:21:32;;;;;;;8.88;6.18;;;14.50;83.80;;;;;;5029491;28;20251;-79
2021/10/30 12:23:59;;;;;;;9.05;6.00;;;14.50;84.70;;;;;;5030966;28;20060;-79
2021/10/30 12:26:51;;;;;;;9.05;6.38;;;14.50;82.70;;;;;;5030002;28;20026;-78
2021/10/30 12:29:17;;;;;;;9.13;6.00;;;14.50;82.80;;;;;;5030779;28;20036;-78
2021/10/30 12:32:05;;;;;;;9.88;6.60;;;14.50;82.80;;;;;;5029806;28;20025;-79
2021/10/30 12:34:33;;;;;;;11.00;6.47;;;14.50;82.90;;;;;;5029901;28;20113;-77
2021/10/30 12:37:02;;;;;;;8.70;6.13;;;14.50;82.80;;;;;;5027364;28;20045;-79
2021/10/30 12:39:28;;;;;;;8.70;6.05;;;14.50;83.20;;;;;;5029917;28;20112;-78
2021/10/30 12:42:15;;;;;;;8.75;5.90;;;14.50;82.60;;;;;;5027872;28;20120;-78
2021/10/30 12:44:41;;;;;;;9.32;6.13;;;14.50;82.60;;;;;;5027786;28;20426;-76
2021/10/30 12:47:14;;;;;;;10.35;6.68;;;14.50;82.70;;;;;;5028209;28;20091;-76
2021/10/30 12:49:43;;;;;;;10.30;6.35;;;14.50;84.60;;;;;;5027962;28;20037;-77
2021/10/30 12:52:13;;;;;;;9.88;6.00;;;14.50;82.60;;;;;;5028473;28;20060;-76
2021/10/30 12:54:43;;;;;;;9.90;6.65;;;14.50;83.80;;;;;;5028424;28;20030;-76